sensor_id;sensor_type;location;lat;lon;timestamp;pressure;altitude;pressure_sealevel;temperature;humidity
60246;BME280;46107;53.356;-1.524;2024-01-16T00:01:42;98373.41;;;1.77;32.73
60246;BME280;46107;53.356;-1.524;2024-01-16T00:04:09;98374.46;;;1.28;34.16
60246;BME280;46107;53.356;-1.524;2024-01-16T00:06:39;98370.68;;;0.50;34.54
60246;BME280;46107;53.356;-1.524;2024-01-16T00:09:06;98366.04;;;1.38;34.48
60246;BME280;46107;53.356;-1.524;2024-01-16T00:11:34;98363.34;;;1.00;34.75
60246;BME280;46107;53.356;-1.524;2024-01-16T00:14:06;98360.88;;;0.88;35.03
60246;BME280;46107;53.356;-1.524;2024-01-16T00:16:33;98361.39;;;1.36;35.34
60246;BME280;46107;53.356;-1.524;2024-01-16T00:19:01;98358.16;;;0.78;35.35
60246;BME280;46107;53.356;-1.524;2024-01-16T00:21:28;98357.89;;;0.70;35.70
60246;BME280;46107;53.356;-1.524;2024-01-16T00:23:55;98353.71;;;1.46;34.69
60246;BME280;46107;53.356;-1.524;2024-01-16T00:26:23;98353.18;;;1.45;34.64
60246;BME280;46107;53.356;-1.524;2024-01-16T00:28:50;98344.56;;;1.45;34.34
60246;BME280;46107;53.356;-1.524;2024-01-16T00:31:19;98338.52;;;1.48;34.28
60246;BME280;46107;53.356;-1.524;2024-01-16T00:33:46;98339.45;;;0.57;34.94
60246;BME280;46107;53.356;-1.524;2024-01-16T00:36:14;98331.88;;;0.76;35.38
60246;BME280;46107;53.356;-1.524;2024-01-16T00:38:42;98333.29;;;0.36;37.13
60246;BME280;46107;53.356;-1.524;2024-01-16T00:41:09;98332.67;;;0.72;36.42
60246;BME280;46107;53.356;-1.524;2024-01-16T00:43:37;98333.88;;;1.51;36.07
60246;BME280;46107;53.356;-1.524;2024-01-16T00:46:04;98326.47;;;1.90;34.68
60246;BME280;46107;53.356;-1.524;2024-01-16T00:48:32;98324.66;;;1.63;34.66
60246;BME280;46107;53.356;-1.524;2024-01-16T00:50:59;98324.15;;;1.96;34.37
60246;BME280;46107;53.356;-1.524;2024-01-16T00:53:27;98318.68;;;1.75;34.45
60246;BME280;46107;53.356;-1.524;2024-01-16T00:55:54;98315.83;;;2.48;34.41
60246;BME280;46107;53.356;-1.524;2024-01-16T00:58:23;98311.86;;;2.43;34.32
60246;BME280;46107;53.356;-1.524;2024-01-16T01:00:50;98311.73;;;1.60;34.77
60246;BME280;46107;53.356;-1.524;2024-01-16T01:03:17;98310.35;;;1.68;35.14
60246;BME280;46107;53.356;-1.524;2024-01-16T01:05:45;98308.17;;;1.50;35.86
60246;BME280;46107;53.356;-1.524;2024-01-16T01:08:13;98311.50;;;1.96;34.61
60246;BME280;46107;53.356;-1.524;2024-01-16T01:10:40;98308.77;;;1.97;35.69
60246;BME280;46107;53.356;-1.524;2024-01-16T01:13:08;98306.81;;;1.65;35.13
60246;BME280;46107;53.356;-1.524;2024-01-16T01:15:35;98312.16;;;1.04;35.95
60246;BME280;46107;53.356;-1.524;2024-01-16T01:18:03;98303.60;;;0.31;36.89
60246;BME280;46107;53.356;-1.524;2024-01-16T01:20:31;98300.41;;;0.95;36.67
60246;BME280;46107;53.356;-1.524;2024-01-16T01:22:58;98300.74;;;0.25;37.21
60246;BME280;46107;53.356;-1.524;2024-01-16T01:25:26;98296.64;;;-0.12;38.08
60246;BME280;46107;53.356;-1.524;2024-01-16T01:27:53;98291.30;;;-0.21;38.23
60246;BME280;46107;53.356;-1.524;2024-01-16T01:30:21;98291.05;;;-0.05;37.96
60246;BME280;46107;53.356;-1.524;2024-01-16T01:32:49;98288.59;;;1.07;37.31
60246;BME280;46107;53.356;-1.524;2024-01-16T01:35:17;98289.51;;;-0.66;39.34
60246;BME280;46107;53.356;-1.524;2024-01-16T01:37:45;98289.84;;;0.67;38.26
60246;BME280;46107;53.356;-1.524;2024-01-16T01:40:13;98286.53;;;0.37;37.50
60246;BME280;46107;53.356;-1.524;2024-01-16T01:42:41;98284.73;;;0.73;37.37
60246;BME280;46107;53.356;-1.524;2024-01-16T01:45:09;98287.15;;;-0.02;38.55
60246;BME280;46107;53.356;-1.524;2024-01-16T01:47:36;98288.01;;;1.33;36.52
60246;BME280;46107;53.356;-1.524;2024-01-16T01:50:03;98285.04;;;0.62;36.56
60246;BME280;46107;53.356;-1.524;2024-01-16T01:52:32;98282.36;;;1.03;37.06
60246;BME280;46107;53.356;-1.524;2024-01-16T01:55:02;98276.91;;;1.59;36.21
60246;BME280;46107;53.356;-1.524;2024-01-16T01:57:30;98275.73;;;2.01;35.78
60246;BME280;46107;53.356;-1.524;2024-01-16T02:00:00;98273.01;;;2.28;35.49
60246;BME280;46107;53.356;-1.524;2024-01-16T02:02:28;98271.50;;;1.73;35.47
60246;BME280;46107;53.356;-1.524;2024-01-16T02:04:55;98267.87;;;1.16;35.95
60246;BME280;46107;53.356;-1.524;2024-01-16T02:07:23;98262.41;;;1.79;36.04
60246;BME280;46107;53.356;-1.524;2024-01-16T02:09:50;98264.61;;;1.08;36.24
60246;BME280;46107;53.356;-1.524;2024-01-16T02:12:18;98263.11;;;1.89;35.77
60246;BME280;46107;53.356;-1.524;2024-01-16T02:14:45;98262.81;;;1.66;35.69
60246;BME280;46107;53.356;-1.524;2024-01-16T02:17:13;98261.27;;;1.38;35.94
60246;BME280;46107;53.356;-1.524;2024-01-16T02:19:41;98258.94;;;1.74;35.80
60246;BME280;46107;53.356;-1.524;2024-01-16T02:22:15;98255.21;;;1.72;35.41
60246;BME280;46107;53.356;-1.524;2024-01-16T02:24:43;98248.17;;;2.30;35.30
60246;BME280;46107;53.356;-1.524;2024-01-16T02:27:11;98247.84;;;1.95;35.56
60246;BME280;46107;53.356;-1.524;2024-01-16T02:29:41;98247.48;;;1.87;35.78
60246;BME280;46107;53.356;-1.524;2024-01-16T02:32:11;98247.30;;;2.61;35.63
60246;BME280;46107;53.356;-1.524;2024-01-16T02:34:39;98244.54;;;2.79;34.89
60246;BME280;46107;53.356;-1.524;2024-01-16T02:37:07;98237.10;;;1.91;36.20
60246;BME280;46107;53.356;-1.524;2024-01-16T02:39:34;98236.28;;;2.54;35.33
60246;BME280;46107;53.356;-1.524;2024-01-16T02:42:02;98234.23;;;2.79;34.78
60246;BME280;46107;53.356;-1.524;2024-01-16T02:44:30;98228.89;;;2.24;35.16
60246;BME280;46107;53.356;-1.524;2024-01-16T02:46:56;98229.14;;;2.07;34.84
60246;BME280;46107;53.356;-1.524;2024-01-16T02:49:23;98225.27;;;1.89;36.41
60246;BME280;46107;53.356;-1.524;2024-01-16T02:51:51;98224.42;;;2.31;36.50
60246;BME280;46107;53.356;-1.524;2024-01-16T02:54:20;98228.68;;;0.26;38.10
60246;BME280;46107;53.356;-1.524;2024-01-16T02:56:47;98217.92;;;1.53;36.41
60246;BME280;46107;53.356;-1.524;2024-01-16T02:59:14;98214.67;;;0.75;36.85
60246;BME280;46107;53.356;-1.524;2024-01-16T03:01:41;98207.82;;;1.61;36.01
60246;BME280;46107;53.356;-1.524;2024-01-16T03:04:09;98205.26;;;1.99;36.59
60246;BME280;46107;53.356;-1.524;2024-01-16T03:06:37;98201.55;;;1.95;35.72
60246;BME280;46107;53.356;-1.524;2024-01-16T03:09:04;98202.11;;;1.61;35.94
60246;BME280;46107;53.356;-1.524;2024-01-16T03:11:32;98200.16;;;1.58;37.01
60246;BME280;46107;53.356;-1.524;2024-01-16T03:14:00;98194.36;;;1.27;37.02
60246;BME280;46107;53.356;-1.524;2024-01-16T03:16:27;98186.83;;;1.65;37.44
60246;BME280;46107;53.356;-1.524;2024-01-16T03:18:55;98189.41;;;-0.10;39.98
60246;BME280;46107;53.356;-1.524;2024-01-16T03:21:23;98177.63;;;0.17;39.77
60246;BME280;46107;53.356;-1.524;2024-01-16T03:23:50;98182.56;;;0.47;39.52
60246;BME280;46107;53.356;-1.524;2024-01-16T03:26:18;98179.99;;;0.62;39.45
60246;BME280;46107;53.356;-1.524;2024-01-16T03:28:45;98168.51;;;1.01;38.63
60246;BME280;46107;53.356;-1.524;2024-01-16T03:31:13;98169.81;;;0.93;39.96
60246;BME280;46107;53.356;-1.524;2024-01-16T03:33:41;98173.99;;;0.50;40.98
60246;BME280;46107;53.356;-1.524;2024-01-16T03:36:09;98169.52;;;0.43;41.43
60246;BME280;46107;53.356;-1.524;2024-01-16T03:38:36;98171.43;;;-0.09;42.98
60246;BME280;46107;53.356;-1.524;2024-01-16T03:41:04;98159.39;;;0.59;42.66
60246;BME280;46107;53.356;-1.524;2024-01-16T03:43:31;98151.92;;;0.89;41.61
60246;BME280;46107;53.356;-1.524;2024-01-16T03:45:59;98148.80;;;0.69;43.22
60246;BME280;46107;53.356;-1.524;2024-01-16T03:48:25;98147.93;;;0.33;44.37
60246;BME280;46107;53.356;-1.524;2024-01-16T03:50:53;98144.93;;;0.84;43.88
60246;BME280;46107;53.356;-1.524;2024-01-16T03:53:21;98139.58;;;0.63;45.23
60246;BME280;46107;53.356;-1.524;2024-01-16T03:55:48;98134.76;;;0.77;45.00
60246;BME280;46107;53.356;-1.524;2024-01-16T03:58:16;98127.23;;;0.70;45.98
60246;BME280;46107;53.356;-1.524;2024-01-16T04:00:43;98124.61;;;0.22;46.61
60246;BME280;46107;53.356;-1.524;2024-01-16T04:03:11;98117.65;;;0.49;47.30
60246;BME280;46107;53.356;-1.524;2024-01-16T04:05:39;98123.07;;;0.20;48.91
60246;BME280;46107;53.356;-1.524;2024-01-16T04:08:06;98126.78;;;0.13;49.30
60246;BME280;46107;53.356;-1.524;2024-01-16T04:10:33;98120.48;;;0.90;48.26
60246;BME280;46107;53.356;-1.524;2024-01-16T04:13:01;98121.31;;;0.23;50.54
60246;BME280;46107;53.356;-1.524;2024-01-16T04:15:28;98124.11;;;-0.65;54.51
60246;BME280;46107;53.356;-1.524;2024-01-16T04:17:56;98123.92;;;0.21;51.71
60246;BME280;46107;53.356;-1.524;2024-01-16T04:20:23;98118.43;;;-0.05;53.23
60246;BME280;46107;53.356;-1.524;2024-01-16T04:22:51;98115.14;;;-0.37;55.26
60246;BME280;46107;53.356;-1.524;2024-01-16T04:25:18;98113.42;;;-0.48;55.41
60246;BME280;46107;53.356;-1.524;2024-01-16T04:27:46;98111.31;;;-0.52;56.40
60246;BME280;46107;53.356;-1.524;2024-01-16T04:30:13;98110.90;;;-1.01;56.91
60246;BME280;46107;53.356;-1.524;2024-01-16T04:32:41;98108.95;;;-0.37;57.60
60246;BME280;46107;53.356;-1.524;2024-01-16T04:35:08;98107.86;;;-1.72;59.52
60246;BME280;46107;53.356;-1.524;2024-01-16T04:37:36;98105.17;;;-0.40;57.80
60246;BME280;46107;53.356;-1.524;2024-01-16T04:40:04;98097.40;;;-0.63;57.73
60246;BME280;46107;53.356;-1.524;2024-01-16T04:42:31;98094.44;;;-0.46;57.98
60246;BME280;46107;53.356;-1.524;2024-01-16T04:44:58;98094.93;;;-0.58;57.80
60246;BME280;46107;53.356;-1.524;2024-01-16T04:47:25;98091.27;;;-0.67;57.08
60246;BME280;46107;53.356;-1.524;2024-01-16T04:49:53;98096.09;;;-0.24;56.90
60246;BME280;46107;53.356;-1.524;2024-01-16T04:52:20;98094.01;;;-0.36;57.00
60246;BME280;46107;53.356;-1.524;2024-01-16T04:54:47;98091.83;;;-0.08;55.88
60246;BME280;46107;53.356;-1.524;2024-01-16T04:57:14;98097.95;;;-0.02;56.38
60246;BME280;46107;53.356;-1.524;2024-01-16T04:59:41;98095.78;;;-0.36;56.19
60246;BME280;46107;53.356;-1.524;2024-01-16T05:02:09;98096.85;;;-0.22;55.47
60246;BME280;46107;53.356;-1.524;2024-01-16T05:04:37;98095.36;;;0.10;54.32
60246;BME280;46107;53.356;-1.524;2024-01-16T05:07:04;98089.92;;;0.39;53.76
60246;BME280;46107;53.356;-1.524;2024-01-16T05:09:31;98090.86;;;0.79;52.44
60246;BME280;46107;53.356;-1.524;2024-01-16T05:11:59;98095.50;;;-0.74;55.40
60246;BME280;46107;53.356;-1.524;2024-01-16T05:14:26;98088.10;;;0.96;52.72
60246;BME280;46107;53.356;-1.524;2024-01-16T05:16:53;98092.09;;;0.36;52.89
60246;BME280;46107;53.356;-1.524;2024-01-16T05:19:21;98087.31;;;0.90;51.05
60246;BME280;46107;53.356;-1.524;2024-01-16T05:21:48;98087.55;;;1.28;50.98
60246;BME280;46107;53.356;-1.524;2024-01-16T05:24:15;98084.89;;;0.21;52.65
60246;BME280;46107;53.356;-1.524;2024-01-16T05:26:43;98084.32;;;0.38;52.14
60246;BME280;46107;53.356;-1.524;2024-01-16T05:29:10;98080.33;;;0.68;52.78
60246;BME280;46107;53.356;-1.524;2024-01-16T05:31:40;98076.67;;;0.52;53.18
60246;BME280;46107;53.356;-1.524;2024-01-16T05:34:08;98065.54;;;1.12;51.75
60246;BME280;46107;53.356;-1.524;2024-01-16T05:36:35;98058.97;;;1.90;49.14
60246;BME280;46107;53.356;-1.524;2024-01-16T05:39:03;98056.33;;;0.94;50.81
60246;BME280;46107;53.356;-1.524;2024-01-16T05:41:32;98060.15;;;0.55;51.92
60246;BME280;46107;53.356;-1.524;2024-01-16T05:43:59;98062.77;;;0.83;50.29
60246;BME280;46107;53.356;-1.524;2024-01-16T05:46:27;98053.35;;;0.53;50.08
60246;BME280;46107;53.356;-1.524;2024-01-16T05:48:54;98056.31;;;1.55;48.67
60246;BME280;46107;53.356;-1.524;2024-01-16T05:51:22;98054.31;;;0.62;49.91
60246;BME280;46107;53.356;-1.524;2024-01-16T05:53:49;98047.81;;;1.38;49.07
60246;BME280;46107;53.356;-1.524;2024-01-16T05:56:16;98040.90;;;1.66;48.09
60246;BME280;46107;53.356;-1.524;2024-01-16T05:58:44;98035.10;;;1.68;48.37
60246;BME280;46107;53.356;-1.524;2024-01-16T06:01:12;98026.97;;;2.10;47.84
60246;BME280;46107;53.356;-1.524;2024-01-16T06:03:40;98027.36;;;1.12;50.58
60246;BME280;46107;53.356;-1.524;2024-01-16T06:06:07;98031.50;;;-0.48;54.03
60246;BME280;46107;53.356;-1.524;2024-01-16T06:08:35;98024.95;;;0.11;54.27
60246;BME280;46107;53.356;-1.524;2024-01-16T06:11:02;98022.05;;;0.13;53.97
60246;BME280;46107;53.356;-1.524;2024-01-16T06:13:30;98022.06;;;0.70;52.40
60246;BME280;46107;53.356;-1.524;2024-01-16T06:15:58;98017.14;;;0.97;52.61
60246;BME280;46107;53.356;-1.524;2024-01-16T06:18:25;98016.99;;;0.70;52.70
60246;BME280;46107;53.356;-1.524;2024-01-16T06:20:53;98015.23;;;1.38;51.97
60246;BME280;46107;53.356;-1.524;2024-01-16T06:23:20;98014.39;;;0.20;54.71
60246;BME280;46107;53.356;-1.524;2024-01-16T06:25:48;98008.89;;;0.57;54.05
60246;BME280;46107;53.356;-1.524;2024-01-16T06:28:16;97999.56;;;1.21;52.66
60246;BME280;46107;53.356;-1.524;2024-01-16T06:30:43;98003.62;;;1.80;51.05
60246;BME280;46107;53.356;-1.524;2024-01-16T06:33:11;98009.06;;;1.91;50.45
60246;BME280;46107;53.356;-1.524;2024-01-16T06:35:38;98009.56;;;0.72;52.26
60246;BME280;46107;53.356;-1.524;2024-01-16T06:38:06;98006.24;;;1.39;51.60
60246;BME280;46107;53.356;-1.524;2024-01-16T06:40:34;97996.83;;;1.81;50.98
60246;BME280;46107;53.356;-1.524;2024-01-16T06:43:01;97989.14;;;1.37;51.63
60246;BME280;46107;53.356;-1.524;2024-01-16T06:45:29;97985.94;;;1.91;51.02
60246;BME280;46107;53.356;-1.524;2024-01-16T06:47:56;97981.77;;;1.04;52.16
60246;BME280;46107;53.356;-1.524;2024-01-16T06:50:24;97977.65;;;1.37;52.33
60246;BME280;46107;53.356;-1.524;2024-01-16T06:52:52;97976.20;;;1.49;51.38
60246;BME280;46107;53.356;-1.524;2024-01-16T06:55:19;97973.80;;;1.88;51.56
60246;BME280;46107;53.356;-1.524;2024-01-16T06:57:47;97976.10;;;0.63;53.21
60246;BME280;46107;53.356;-1.524;2024-01-16T07:00:16;97970.07;;;1.77;51.66
60246;BME280;46107;53.356;-1.524;2024-01-16T07:02:43;97970.84;;;2.00;51.06
60246;BME280;46107;53.356;-1.524;2024-01-16T07:05:11;97979.71;;;1.51;51.91
60246;BME280;46107;53.356;-1.524;2024-01-16T07:07:38;97975.22;;;1.48;51.82
60246;BME280;46107;53.356;-1.524;2024-01-16T07:10:07;97966.52;;;2.11;51.51
60246;BME280;46107;53.356;-1.524;2024-01-16T07:12:34;97964.74;;;1.69;52.06
60246;BME280;46107;53.356;-1.524;2024-01-16T07:15:01;97970.53;;;0.75;53.65
60246;BME280;46107;53.356;-1.524;2024-01-16T07:17:29;97968.23;;;1.45;52.74
60246;BME280;46107;53.356;-1.524;2024-01-16T07:19:56;97963.02;;;1.21;53.82
60246;BME280;46107;53.356;-1.524;2024-01-16T07:22:24;97960.32;;;1.56;53.09
60246;BME280;46107;53.356;-1.524;2024-01-16T07:24:52;97961.58;;;1.76;52.98
60246;BME280;46107;53.356;-1.524;2024-01-16T07:27:19;97963.53;;;0.56;54.89
60246;BME280;46107;53.356;-1.524;2024-01-16T07:29:47;97957.26;;;1.48;54.42
60246;BME280;46107;53.356;-1.524;2024-01-16T07:32:14;97957.71;;;1.53;54.31
60246;BME280;46107;53.356;-1.524;2024-01-16T07:34:42;97955.23;;;1.07;55.63
60246;BME280;46107;53.356;-1.524;2024-01-16T07:37:09;97958.43;;;1.45;53.36
60246;BME280;46107;53.356;-1.524;2024-01-16T07:39:36;97955.47;;;1.55;53.01
60246;BME280;46107;53.356;-1.524;2024-01-16T07:42:04;97952.14;;;0.78;54.88
60246;BME280;46107;53.356;-1.524;2024-01-16T07:44:31;97955.68;;;0.95;54.27
60246;BME280;46107;53.356;-1.524;2024-01-16T07:46:58;97949.63;;;0.73;54.98
60246;BME280;46107;53.356;-1.524;2024-01-16T07:49:25;97946.49;;;1.79;53.84
60246;BME280;46107;53.356;-1.524;2024-01-16T07:51:53;97944.61;;;1.20;53.79
60246;BME280;46107;53.356;-1.524;2024-01-16T07:54:20;97944.72;;;1.06;54.82
60246;BME280;46107;53.356;-1.524;2024-01-16T07:56:48;97940.48;;;1.05;54.45
60246;BME280;46107;53.356;-1.524;2024-01-16T07:59:15;97939.93;;;1.72;54.09
60246;BME280;46107;53.356;-1.524;2024-01-16T08:01:42;97935.86;;;1.62;54.54
60246;BME280;46107;53.356;-1.524;2024-01-16T08:04:09;97938.11;;;0.67;56.83
60246;BME280;46107;53.356;-1.524;2024-01-16T08:06:36;97934.79;;;0.49;58.77
60246;BME280;46107;53.356;-1.524;2024-01-16T08:09:04;97940.01;;;0.61;57.66
60246;BME280;46107;53.356;-1.524;2024-01-16T08:11:31;97937.04;;;1.62;54.37
60246;BME280;46107;53.356;-1.524;2024-01-16T08:13:58;97941.94;;;1.95;55.03
60246;BME280;46107;53.356;-1.524;2024-01-16T08:16:26;97947.87;;;1.72;55.43
60246;BME280;46107;53.356;-1.524;2024-01-16T08:18:53;97949.06;;;1.94;54.19
60246;BME280;46107;53.356;-1.524;2024-01-16T08:21:21;97944.64;;;1.58;54.96
60246;BME280;46107;53.356;-1.524;2024-01-16T08:23:48;97944.11;;;1.35;55.95
60246;BME280;46107;53.356;-1.524;2024-01-16T08:26:16;97932.40;;;2.67;53.36
60246;BME280;46107;53.356;-1.524;2024-01-16T08:28:43;97929.53;;;1.84;55.89
60246;BME280;46107;53.356;-1.524;2024-01-16T08:31:11;97921.49;;;1.95;55.81
60246;BME280;46107;53.356;-1.524;2024-01-16T08:33:38;97923.18;;;2.35;54.16
60246;BME280;46107;53.356;-1.524;2024-01-16T08:36:06;97916.49;;;2.15;54.95
60246;BME280;46107;53.356;-1.524;2024-01-16T08:38:33;97913.71;;;2.13;55.23
60246;BME280;46107;53.356;-1.524;2024-01-16T08:41:01;97913.22;;;1.87;55.87
60246;BME280;46107;53.356;-1.524;2024-01-16T08:43:28;97911.71;;;2.18;54.49
60246;BME280;46107;53.356;-1.524;2024-01-16T08:45:56;97910.31;;;2.07;55.28
60246;BME280;46107;53.356;-1.524;2024-01-16T08:48:23;97910.85;;;2.25;54.91
60246;BME280;46107;53.356;-1.524;2024-01-16T08:50:51;97914.57;;;1.35;57.09
60246;BME280;46107;53.356;-1.524;2024-01-16T08:53:18;97913.15;;;1.00;57.43
60246;BME280;46107;53.356;-1.524;2024-01-16T08:55:46;97905.99;;;2.25;54.66
60246;BME280;46107;53.356;-1.524;2024-01-16T08:58:14;97910.31;;;2.90;53.81
60246;BME280;46107;53.356;-1.524;2024-01-16T09:00:41;97907.23;;;2.80;53.84
60246;BME280;46107;53.356;-1.524;2024-01-16T09:03:09;97902.79;;;1.94;55.73
60246;BME280;46107;53.356;-1.524;2024-01-16T09:05:36;97899.68;;;2.16;54.37
60246;BME280;46107;53.356;-1.524;2024-01-16T09:08:04;97895.52;;;2.91;53.44
60246;BME280;46107;53.356;-1.524;2024-01-16T09:10:31;97884.35;;;2.52;53.89
60246;BME280;46107;53.356;-1.524;2024-01-16T09:12:59;97886.46;;;2.30;54.65
60246;BME280;46107;53.356;-1.524;2024-01-16T09:15:26;97881.84;;;2.15;54.52
60246;BME280;46107;53.356;-1.524;2024-01-16T09:17:54;97881.64;;;1.94;55.43
60246;BME280;46107;53.356;-1.524;2024-01-16T09:20:21;97882.14;;;2.32;55.42
60246;BME280;46107;53.356;-1.524;2024-01-16T09:22:49;97886.06;;;1.87;57.02
60246;BME280;46107;53.356;-1.524;2024-01-16T09:25:16;97887.21;;;1.74;57.56
60246;BME280;46107;53.356;-1.524;2024-01-16T09:27:44;97891.30;;;1.83;57.23
60246;BME280;46107;53.356;-1.524;2024-01-16T09:30:12;97888.02;;;2.67;55.84
60246;BME280;46107;53.356;-1.524;2024-01-16T09:32:40;97890.93;;;2.22;56.18
60246;BME280;46107;53.356;-1.524;2024-01-16T09:35:08;97883.36;;;1.87;57.03
60246;BME280;46107;53.356;-1.524;2024-01-16T09:37:36;97887.14;;;2.56;56.64
60246;BME280;46107;53.356;-1.524;2024-01-16T09:40:04;97881.70;;;2.62;55.77
60246;BME280;46107;53.356;-1.524;2024-01-16T09:42:32;97883.66;;;1.89;56.29
60246;BME280;46107;53.356;-1.524;2024-01-16T09:45:00;97887.02;;;2.32;56.49
60246;BME280;46107;53.356;-1.524;2024-01-16T09:47:29;97886.44;;;2.80;55.35
60246;BME280;46107;53.356;-1.524;2024-01-16T09:49:58;97881.42;;;2.10;56.69
60246;BME280;46107;53.356;-1.524;2024-01-16T09:52:26;97879.58;;;2.40;55.22
60246;BME280;46107;53.356;-1.524;2024-01-16T09:54:53;97875.70;;;3.07;54.21
60246;BME280;46107;53.356;-1.524;2024-01-16T09:57:25;97872.29;;;2.10;56.26
60246;BME280;46107;53.356;-1.524;2024-01-16T09:59:52;97862.10;;;1.75;57.41
60246;BME280;46107;53.356;-1.524;2024-01-16T10:02:20;97863.31;;;1.49;58.37
60246;BME280;46107;53.356;-1.524;2024-01-16T10:04:49;97858.56;;;2.70;55.08
60246;BME280;46107;53.356;-1.524;2024-01-16T10:07:17;97856.19;;;1.99;57.21
60246;BME280;46107;53.356;-1.524;2024-01-16T10:09:45;97856.92;;;2.24;55.71
60246;BME280;46107;53.356;-1.524;2024-01-16T10:12:13;97854.50;;;1.29;57.32
60246;BME280;46107;53.356;-1.524;2024-01-16T10:14:41;97852.26;;;2.56;54.69
60246;BME280;46107;53.356;-1.524;2024-01-16T10:17:09;97844.65;;;2.44;55.20
60246;BME280;46107;53.356;-1.524;2024-01-16T10:19:47;97837.12;;;2.68;54.11
60246;BME280;46107;53.356;-1.524;2024-01-16T10:22:20;97835.33;;;2.16;53.94
60246;BME280;46107;53.356;-1.524;2024-01-16T10:24:48;97836.14;;;2.45;53.83
60246;BME280;46107;53.356;-1.524;2024-01-16T10:27:16;97826.66;;;2.48;52.96
60246;BME280;46107;53.356;-1.524;2024-01-16T10:29:55;97833.54;;;2.50;53.07
60246;BME280;46107;53.356;-1.524;2024-01-16T10:32:28;97826.78;;;1.98;54.79
60246;BME280;46107;53.356;-1.524;2024-01-16T10:35:02;97823.32;;;2.47;53.89
60246;BME280;46107;53.356;-1.524;2024-01-16T10:37:30;97824.62;;;2.61;52.76
60246;BME280;46107;53.356;-1.524;2024-01-16T10:39:57;97820.09;;;2.02;53.61
60246;BME280;46107;53.356;-1.524;2024-01-16T10:42:25;97814.82;;;1.06;57.57
60246;BME280;46107;53.356;-1.524;2024-01-16T10:44:53;97813.45;;;2.06;55.17
60246;BME280;46107;53.356;-1.524;2024-01-16T10:47:21;97808.77;;;2.38;54.94
60246;BME280;46107;53.356;-1.524;2024-01-16T10:49:49;97804.87;;;2.71;54.24
60246;BME280;46107;53.356;-1.524;2024-01-16T10:52:18;97800.10;;;2.93;51.90
60246;BME280;46107;53.356;-1.524;2024-01-16T10:54:46;97803.66;;;3.09;52.43
60246;BME280;46107;53.356;-1.524;2024-01-16T10:57:17;97803.71;;;2.95;51.28
60246;BME280;46107;53.356;-1.524;2024-01-16T10:59:50;97807.17;;;2.80;53.23
60246;BME280;46107;53.356;-1.524;2024-01-16T11:02:20;97796.68;;;2.81;51.77
60246;BME280;46107;53.356;-1.524;2024-01-16T11:04:53;97792.97;;;3.37;51.38
60246;BME280;46107;53.356;-1.524;2024-01-16T11:07:22;97787.25;;;3.96;48.84
60246;BME280;46107;53.356;-1.524;2024-01-16T11:09:50;97789.97;;;2.45;52.23
60246;BME280;46107;53.356;-1.524;2024-01-16T11:12:17;97786.74;;;1.47;54.03
60246;BME280;46107;53.356;-1.524;2024-01-16T11:14:46;97781.55;;;2.14;53.35
60246;BME280;46107;53.356;-1.524;2024-01-16T11:17:17;97776.65;;;1.45;54.33
60246;BME280;46107;53.356;-1.524;2024-01-16T11:19:46;97776.71;;;2.10;53.13
60246;BME280;46107;53.356;-1.524;2024-01-16T11:22:15;97772.84;;;2.54;52.85
60246;BME280;46107;53.356;-1.524;2024-01-16T11:24:43;97773.05;;;2.61;51.89
60246;BME280;46107;53.356;-1.524;2024-01-16T11:27:22;97775.03;;;2.39;52.27
60246;BME280;46107;53.356;-1.524;2024-01-16T11:29:50;97767.05;;;2.47;51.75
60246;BME280;46107;53.356;-1.524;2024-01-16T11:32:33;97757.92;;;3.55;49.81
60246;BME280;46107;53.356;-1.524;2024-01-16T11:35:00;97764.65;;;2.15;51.17
60246;BME280;46107;53.356;-1.524;2024-01-16T11:37:29;97762.96;;;2.25;51.91
60246;BME280;46107;53.356;-1.524;2024-01-16T11:40:24;97761.81;;;2.82;50.47
60246;BME280;46107;53.356;-1.524;2024-01-16T11:42:52;97752.33;;;2.92;50.96
60246;BME280;46107;53.356;-1.524;2024-01-16T11:45:53;97751.13;;;2.00;53.05
60246;BME280;46107;53.356;-1.524;2024-01-16T11:48:20;97748.96;;;2.34;52.41
60246;BME280;46107;53.356;-1.524;2024-01-16T11:50:48;97739.46;;;3.09;50.90
60246;BME280;46107;53.356;-1.524;2024-01-16T11:53:47;97735.43;;;3.55;48.75
60246;BME280;46107;53.356;-1.524;2024-01-16T11:58:35;97739.63;;;3.08;49.91
60246;BME280;46107;53.356;-1.524;2024-01-16T12:01:10;97729.68;;;3.62;48.82
60246;BME280;46107;53.356;-1.524;2024-01-16T12:03:38;97728.07;;;3.62;48.69
60246;BME280;46107;53.356;-1.524;2024-01-16T12:06:05;97718.21;;;4.02;48.19
60246;BME280;46107;53.356;-1.524;2024-01-16T12:08:33;97705.23;;;4.48;47.28
60246;BME280;46107;53.356;-1.524;2024-01-16T12:11:00;97699.91;;;4.69;47.35
60246;BME280;46107;53.356;-1.524;2024-01-16T12:13:28;97689.86;;;4.90;46.62
60246;BME280;46107;53.356;-1.524;2024-01-16T12:16:03;97686.54;;;4.21;46.14
60246;BME280;46107;53.356;-1.524;2024-01-16T12:18:31;97675.31;;;4.13;46.38
60246;BME280;46107;53.356;-1.524;2024-01-16T12:21:08;97670.77;;;4.98;46.26
60246;BME280;46107;53.356;-1.524;2024-01-16T12:23:35;97667.12;;;5.21;45.71
60246;BME280;46107;53.356;-1.524;2024-01-16T12:26:03;97659.06;;;4.08;46.45
60246;BME280;46107;53.356;-1.524;2024-01-16T12:28:30;97650.56;;;4.30;46.73
60246;BME280;46107;53.356;-1.524;2024-01-16T12:30:58;97640.84;;;4.56;46.54
60246;BME280;46107;53.356;-1.524;2024-01-16T12:33:25;97625.10;;;4.86;46.53
60246;BME280;46107;53.356;-1.524;2024-01-16T12:36:02;97625.02;;;3.82;47.97
60246;BME280;46107;53.356;-1.524;2024-01-16T12:38:30;97616.29;;;4.40;47.72
60246;BME280;46107;53.356;-1.524;2024-01-16T12:40:58;97616.11;;;4.13;48.17
60246;BME280;46107;53.356;-1.524;2024-01-16T12:43:26;97606.43;;;3.53;48.34
60246;BME280;46107;53.356;-1.524;2024-01-16T12:45:55;97595.66;;;3.48;48.63
60246;BME280;46107;53.356;-1.524;2024-01-16T12:48:24;97589.97;;;4.07;47.88
60246;BME280;46107;53.356;-1.524;2024-01-16T12:50:58;97584.67;;;3.71;49.04
60246;BME280;46107;53.356;-1.524;2024-01-16T12:53:25;97577.22;;;4.42;47.43
60246;BME280;46107;53.356;-1.524;2024-01-16T12:55:58;97567.84;;;3.37;48.04
60246;BME280;46107;53.356;-1.524;2024-01-16T12:58:32;97571.55;;;4.50;47.30
60246;BME280;46107;53.356;-1.524;2024-01-16T13:01:21;97556.24;;;5.37;45.14
60246;BME280;46107;53.356;-1.524;2024-01-16T13:03:49;97546.92;;;3.55;47.38
60246;BME280;46107;53.356;-1.524;2024-01-16T13:06:18;97535.22;;;3.97;47.37
60246;BME280;46107;53.356;-1.524;2024-01-16T13:08:46;97533.70;;;3.87;47.63